Time;durP1;ratioP1;P1;durP2;ratioP2;P2;SDS_P1;SDS_P2;PMS_P1;PMS_P2;Temp;Humidity;BMP_temperature;BMP_pressure;BME280_temperature;BME280_humidity;BME280_pressure;Samples;Min_cycle;Max_cycle;Signal;HPM_P1;HPM_P2
2022/10/28 00:01:03;;;;;;;14.15;8.45;;;10.40;71.00;;;;;;5007656;28;20033;-76
2022/10/28 00:03:29;;;;;;;11.73;8.00;;;10.40;71.10;;;;;;5040097;28;20511;-78
2022/10/28 00:06:04;;;;;;;11.38;8.73;;;10.40;71.10;;;;;;5004764;28;20033;-78
2022/10/28 00:08:30;;;;;;;12.88;8.57;;;10.30;71.00;;;;;;5039753;28;20490;-78
2022/10/28 00:11:24;;;;;;;12.90;9.00;;;10.30;71.00;;;;;;5041843;28;20051;-79
2022/10/28 00:13:53;;;;;;;11.80;8.45;;;10.30;71.00;;;;;;5035853;28;20043;-77
2022/10/28 00:16:22;;;;;;;12.07;8.65;;;10.30;71.00;;;;;;5017594;28;20029;-77
2022/10/28 00:18:51;;;;;;;12.13;8.00;;;10.30;71.00;;;;;;4989660;28;20033;-79
2022/10/28 00:21:19;;;;;;;11.45;8.45;;;10.30;71.00;;;;;;5023275;28;20044;-77
2022/10/28 00:23:45;;;;;;;10.82;8.48;;;10.30;71.00;;;;;;4992530;28;20155;-79
2022/10/28 00:26:18;;;;;;;12.10;8.40;;;10.30;71.10;;;;;;5021828;28;20082;-77
2022/10/28 00:28:47;;;;;;;10.82;8.57;;;10.30;71.10;;;;;;4992174;28;20082;-78
2022/10/28 00:31:15;;;;;;;10.40;7.90;;;10.30;71.00;;;;;;5026471;28;20036;-77
2022/10/28 00:33:41;;;;;;;10.77;8.00;;;10.30;71.10;;;;;;5025774;28;20033;-79
2022/10/28 00:36:08;;;;;;;11.68;8.40;;;10.30;71.10;;;;;;5009963;28;20045;-78
2022/10/28 00:38:34;;;;;;;9.85;7.90;;;10.30;71.10;;;;;;5022240;28;20496;-79
2022/10/28 00:41:00;;;;;;;10.23;7.60;;;10.30;71.20;;;;;;5021842;28;20033;-78
2022/10/28 00:43:38;;;;;;;9.85;7.80;;;10.30;71.20;;;;;;5021350;28;20040;-79
2022/10/28 00:46:12;;;;;;;11.80;7.80;;;10.30;71.30;;;;;;5022370;28;20087;-79
2022/10/28 00:48:40;;;;;;;15.02;8.20;;;10.30;71.30;;;;;;5041579;28;20067;-80
2022/10/28 00:51:08;;;;;;;11.45;7.78;;;10.30;71.30;;;;;;5020503;28;20041;-80
2022/10/28 00:53:35;;;;;;;10.57;7.57;;;10.30;71.30;;;;;;5039821;28;20036;-80
2022/10/28 00:56:02;;;;;;;11.77;8.20;;;10.30;71.30;;;;;;5040938;28;20116;-79
2022/10/28 00:58:28;;;;;;;10.77;8.07;;;10.30;71.30;;;;;;5004661;28;20037;-80
2022/10/28 01:00:55;;;;;;;12.73;8.20;;;10.30;71.30;;;;;;5040499;28;20037;-79
2022/10/28 01:03:22;;;;;;;11.02;7.80;;;10.30;71.30;;;;;;5021187;28;20053;-80
2022/10/28 01:05:49;;;;;;;12.60;7.68;;;10.30;71.30;;;;;;5038990;28;20059;-77
2022/10/28 01:08:16;;;;;;;11.23;7.68;;;10.30;71.30;;;;;;5009603;28;20159;-79
2022/10/28 01:10:57;;;;;;;10.77;7.72;;;10.30;71.30;;;;;;5020664;28;20041;-80
2022/10/28 01:13:57;;;;;;;12.18;7.70;;;10.30;71.30;;;;;;5025109;28;20044;-80
2022/10/28 01:17:04;;;;;;;11.18;7.47;;;10.30;71.30;;;;;;5040390;28;20087;-80
2022/10/28 01:19:30;;;;;;;;;;;10.30;71.30;;;;;;4912411;28;20127;-79
2022/10/28 01:22:32;;;;;;;10.68;7.13;;;10.30;71.30;;;;;;4944795;28;20016;-80
2022/10/28 01:25:35;;;;;;;10.23;7.00;;;10.30;71.30;;;;;;4944827;28;20050;-78
2022/10/28 01:28:22;;;;;;;11.38;7.35;;;10.30;71.30;;;;;;4932148;28;20033;-77
2022/10/28 01:31:14;;;;;;;10.52;7.55;;;10.30;71.40;;;;;;4947109;28;20035;-76
2022/10/28 01:33:49;;;;;;;11.20;7.72;;;10.30;71.40;;;;;;4930169;28;20044;-78
2022/10/28 01:36:39;;;;;;;12.27;7.28;;;10.30;71.40;;;;;;4947183;28;20039;-78
2022/10/28 01:39:26;;;;;;;12.55;6.97;;;10.30;71.40;;;;;;4931973;28;20035;-78
2022/10/28 01:42:14;;;;;;;10.07;7.35;;;10.30;71.40;;;;;;4947191;28;20070;-78
2022/10/28 01:45:12;;;;;;;10.73;7.78;;;10.30;71.40;;;;;;4946784;28;20031;-78
2022/10/28 01:48:11;;;;;;;9.10;6.90;;;10.30;71.40;;;;;;4943878;28;20039;-79
2022/10/28 01:51:12;;;;;;;10.00;7.28;;;10.30;71.40;;;;;;4928890;29;20051;-78
2022/10/28 01:53:41;;;;;;;11.75;7.38;;;10.30;71.40;;;;;;4927800;29;20051;-80
2022/10/28 01:56:13;;;;;;;10.93;7.72;;;10.30;71.40;;;;;;4979181;28;20509;-80
2022/10/28 01:58:40;;;;;;;13.50;8.20;;;10.30;71.40;;;;;;4968403;28;20081;-79
2022/10/28 02:01:08;;;;;;;13.15;7.90;;;10.30;71.50;;;;;;4966673;28;20165;-80
2022/10/28 02:03:34;;;;;;;10.55;7.45;;;10.30;71.50;;;;;;4962753;28;20038;-80
2022/10/28 02:06:05;;;;;;;11.05;7.78;;;10.30;71.50;;;;;;4964425;28;20039;-79
2022/10/28 02:08:37;;;;;;;11.25;7.90;;;10.30;71.60;;;;;;4964251;28;20054;-79
2022/10/28 02:11:09;;;;;;;11.48;8.07;;;10.30;71.60;;;;;;4982212;28;20624;-77
2022/10/28 02:13:43;;;;;;;11.93;8.00;;;10.30;71.60;;;;;;4968464;28;20039;-78
2022/10/28 02:16:21;;;;;;;12.25;7.97;;;10.30;71.50;;;;;;4979834;28;20507;-80
2022/10/28 02:18:57;;;;;;;12.30;8.10;;;10.30;71.50;;;;;;4948656;28;20030;-78
2022/10/28 02:21:32;;;;;;;11.88;7.88;;;10.30;71.50;;;;;;4980618;28;20038;-78
2022/10/28 02:24:24;;;;;;;12.73;8.20;;;10.30;71.50;;;;;;4969551;28;20588;-78
2022/10/28 02:27:10;;;;;;;10.23;7.20;;;10.30;71.50;;;;;;4990055;28;20063;-78
2022/10/28 02:29:40;;;;;;;;;;;10.30;71.50;;;;;;5041162;28;20748;-79
2022/10/28 02:32:12;;;;;;;11.20;7.53;;;10.30;71.40;;;;;;5044295;28;19963;-79
2022/10/28 02:34:44;;;;;;;10.93;7.80;;;10.30;71.40;;;;;;5023405;28;20039;-79
2022/10/28 02:37:20;;;;;;;10.50;7.80;;;10.30;71.40;;;;;;5041947;28;20533;-79
2022/10/28 02:39:52;;;;;;;12.52;7.88;;;10.30;71.50;;;;;;5022429;28;20033;-79
2022/10/28 02:42:35;;;;;;;12.35;8.38;;;10.30;71.50;;;;;;5041708;28;20029;-79
2022/10/28 02:45:11;;;;;;;11.48;7.50;;;10.30;71.50;;;;;;5043188;28;20029;-80
2022/10/28 02:47:42;;;;;;;10.73;7.30;;;10.30;71.40;;;;;;4995563;28;20120;-78
2022/10/28 02:50:15;;;;;;;10.68;7.38;;;10.30;71.50;;;;;;5011359;28;20388;-80
2022/10/28 02:52:42;;;;;;;11.00;7.32;;;10.30;71.50;;;;;;5024072;28;20049;-80
2022/10/28 02:55:08;;;;;;;13.02;8.00;;;10.30;71.40;;;;;;5041193;28;20029;-80
2022/10/28 02:57:40;;;;;;;10.85;7.60;;;10.30;71.40;;;;;;5041010;28;20539;-79
2022/10/28 03:00:10;;;;;;;14.00;7.35;;;10.30;71.40;;;;;;5042360;28;20033;-79
2022/10/28 03:02:36;;;;;;;11.90;7.95;;;10.30;71.40;;;;;;5040124;28;20033;-78
2022/10/28 03:05:04;;;;;;;11.93;6.57;;;10.30;71.40;;;;;;5041161;28;20427;-80
2022/10/28 03:07:30;;;;;;;10.95;7.15;;;10.30;71.40;;;;;;5023510;28;20037;-78
2022/10/28 03:09:56;;;;;;;11.02;7.35;;;10.30;71.40;;;;;;5040602;28;20040;-77
2022/10/28 03:12:22;;;;;;;9.85;6.80;;;10.30;71.40;;;;;;5041063;28;20502;-77
2022/10/28 03:14:48;;;;;;;11.55;7.85;;;10.30;71.50;;;;;;5040956;28;20562;-77
2022/10/28 03:17:13;;;;;;;9.80;7.22;;;10.30;71.50;;;;;;5023132;28;20392;-77
2022/10/28 03:19:39;;;;;;;11.85;7.50;;;10.40;71.60;;;;;;5025996;28;20038;-76
2022/10/28 03:22:05;;;;;;;11.13;7.38;;;10.30;71.60;;;;;;5041621;28;20044;-76
2022/10/28 03:24:31;;;;;;;11.45;7.05;;;10.30;72.20;;;;;;5038376;28;20051;-76
2022/10/28 03:26:57;;;;;;;10.82;6.85;;;10.30;71.70;;;;;;5004088;28;20037;-77
2022/10/28 03:29:23;;;;;;;10.68;7.38;;;10.40;71.70;;;;;;5041091;28;20033;-77
2022/10/28 03:31:49;;;;;;;11.32;7.50;;;10.40;71.70;;;;;;5039954;28;20056;-78
2022/10/28 03:34:15;;;;;;;10.00;7.13;;;10.40;73.40;;;;;;5039550;28;20033;-78
2022/10/28 03:36:40;;;;;;;11.95;7.40;;;10.40;78.80;;;;;;5041182;28;20040;-78
2022/10/28 03:39:06;;;;;;;10.10;7.15;;;10.40;71.90;;;;;;5040460;28;20033;-78
2022/10/28 03:41:32;;;;;;;11.20;7.35;;;10.30;71.90;;;;;;5039210;28;20041;-79
2022/10/28 03:43:58;;;;;;;10.75;6.50;;;10.30;71.90;;;;;;5009584;28;20553;-79
2022/10/28 03:46:24;;;;;;;11.02;7.57;;;10.30;72.00;;;;;;5010339;28;20132;-78
2022/10/28 03:48:50;;;;;;;11.85;7.68;;;10.40;72.10;;;;;;5020291;28;20846;-78
2022/10/28 03:51:16;;;;;;;10.73;7.03;;;10.30;72.10;;;;;;5022304;28;20048;-78
2022/10/28 03:53:42;;;;;;;10.07;7.03;;;10.40;72.20;;;;;;5022269;28;20090;-78
2022/10/28 03:56:09;;;;;;;11.45;6.75;;;10.40;72.20;;;;;;5023165;28;20037;-76
2022/10/28 03:58:34;;;;;;;10.30;7.00;;;10.40;72.10;;;;;;5039696;28;20043;-77
2022/10/28 04:01:00;;;;;;;11.32;7.32;;;10.30;72.20;;;;;;5041214;28;20037;-81
2022/10/28 04:03:26;;;;;;;10.27;7.55;;;10.40;72.30;;;;;;5004530;28;20148;-77
2022/10/28 04:05:52;;;;;;;12.43;7.47;;;10.40;72.40;;;;;;5020842;28;20048;-76
2022/10/28 04:08:19;;;;;;;10.27;6.75;;;10.30;72.30;;;;;;5039192;28;20028;-75
2022/10/28 04:10:47;;;;;;;10.85;6.95;;;10.40;72.40;;;;;;5020145;28;20036;-77
2022/10/28 04:13:14;;;;;;;10.35;6.47;;;10.40;72.50;;;;;;5004761;28;20026;-77
2022/10/28 04:15:39;;;;;;;11.52;7.55;;;10.40;72.50;;;;;;5022453;28;20032;-79
2022/10/28 04:18:06;;;;;;;9.68;6.90;;;10.40;72.50;;;;;;5025937;28;20411;-77
2022/10/28 04:20:32;;;;;;;9.48;6.57;;;10.40;72.60;;;;;;5021073;28;20036;-79
2022/10/28 04:22:58;;;;;;;11.63;7.82;;;10.40;72.60;;;;;;5021677;28;20590;-81
2022/10/28 04:25:25;;;;;;;9.73;6.28;;;10.40;72.60;;;;;;5009152;28;20072;-76
2022/10/28 04:27:51;;;;;;;10.30;6.95;;;10.40;72.70;;;;;;5041456;28;20160;-77
2022/10/28 04:30:17;;;;;;;9.73;7.43;;;10.40;72.50;;;;;;5020613;28;20041;-76
2022/10/28 04:32:43;;;;;;;11.80;6.82;;;10.40;72.50;;;;;;5038542;28;20033;-76
2022/10/28 04:35:11;;;;;;;9.95;6.60;;;10.40;72.50;;;;;;5040161;28;20491;-81
2022/10/28 04:37:37;;;;;;;10.95;6.93;;;10.40;72.50;;;;;;5039229;28;20041;-77
2022/10/28 04:40:04;;;;;;;10.07;6.85;;;10.40;72.60;;;;;;5037778;28;20528;-75
2022/10/28 04:42:30;;;;;;;11.43;7.10;;;10.40;72.60;;;;;;5020839;28;20119;-75
2022/10/28 04:44:56;;;;;;;9.27;6.60;;;10.40;72.60;;;;;;5025015;28;20120;-76
2022/10/28 04:47:22;;;;;;;10.15;6.88;;;10.40;72.70;;;;;;5001774;28;20407;-76
2022/10/28 04:49:47;;;;;;;12.32;7.25;;;10.40;72.70;;;;;;5039022;28;20033;-76
2022/10/28 04:52:14;;;;;;;10.73;6.93;;;10.50;72.90;;;;;;5037050;28;20080;-75
2022/10/28 04:54:40;;;;;;;9.90;6.70;;;10.50;72.90;;;;;;5020852;28;20595;-75
2022/10/28 04:57:06;;;;;;;10.48;7.15;;;10.50;72.90;;;;;;5040123;28;20131;-75
2022/10/28 04:59:31;;;;;;;11.57;7.53;;;10.50;72.90;;;;;;5040577;28;20041;-75
2022/10/28 05:01:57;;;;;;;9.88;6.63;;;10.50;72.90;;;;;;5043529;28;20036;-75
2022/10/28 05:04:23;;;;;;;11.90;7.18;;;10.50;73.00;;;;;;5042326;28;20083;-75
2022/10/28 05:06:49;;;;;;;10.85;6.80;;;10.40;73.10;;;;;;5043845;28;20522;-75
2022/10/28 05:09:15;;;;;;;10.70;6.82;;;10.50;73.00;;;;;;5025740;28;20530;-75
2022/10/28 05:11:41;;;;;;;11.10;6.32;;;10.50;73.10;;;;;;5042834;28;20044;-75
2022/10/28 05:14:07;;;;;;;11.68;6.95;;;10.50;73.40;;;;;;5043552;28;20037;-75
2022/10/28 05:16:32;;;;;;;11.38;7.35;;;10.50;73.40;;;;;;5041875;28;20107;-75
2022/10/28 05:18:58;;;;;;;13.75;7.60;;;10.50;73.30;;;;;;5041878;28;20175;-74
2022/10/28 05:21:24;;;;;;;14.32;8.05;;;10.50;73.40;;;;;;5043231;28;20033;-76
2022/10/28 05:23:50;;;;;;;12.85;6.72;;;10.50;73.30;;;;;;5042094;28;20606;-74
2022/10/28 05:26:16;;;;;;;13.23;8.45;;;10.50;73.30;;;;;;5041592;28;20029;-75
2022/10/28 05:28:42;;;;;;;11.50;7.05;;;10.50;73.30;;;;;;5027818;28;20067;-75
2022/10/28 05:31:09;;;;;;;13.30;7.78;;;10.50;73.30;;;;;;5041800;28;20041;-75
2022/10/28 05:33:35;;;;;;;11.90;7.22;;;10.50;73.30;;;;;;5041626;28;20037;-75
2022/10/28 05:36:01;;;;;;;13.00;7.68;;;10.50;73.30;;;;;;5023457;28;20033;-76
2022/10/28 05:38:28;;;;;;;12.82;8.10;;;10.50;73.30;;;;;;5024385;28;20143;-75
2022/10/28 05:40:53;;;;;;;13.52;8.18;;;10.50;73.30;;;;;;5012005;28;20025;-75
2022/10/28 05:43:19;;;;;;;10.48;6.95;;;10.60;73.40;;;;;;5041040;28;20041;-75
2022/10/28 05:45:56;;;;;;;11.73;7.53;;;10.50;73.50;;;;;;5042778;28;20040;-75
2022/10/28 05:48:22;;;;;;;12.90;7.78;;;10.60;73.40;;;;;;5042817;28;20044;-75
2022/10/28 05:50:48;;;;;;;11.05;7.10;;;10.60;73.50;;;;;;5040698;28;20507;-77
2022/10/28 05:53:14;;;;;;;13.98;8.38;;;10.60;73.50;;;;;;5042881;28;20091;-74
2022/10/28 05:55:40;;;;;;;13.02;8.10;;;10.60;74.50;;;;;;5017559;28;20034;-74
2022/10/28 05:58:06;;;;;;;13.02;7.53;;;10.60;75.10;;;;;;5043074;28;20530;-76
2022/10/28 06:00:32;;;;;;;12.70;8.18;;;10.60;75.40;;;;;;5023063;28;20069;-77
2022/10/28 06:03:09;;;;;;;33.90;20.65;;;10.60;75.90;;;;;;5027248;28;20475;-76
2022/10/28 06:05:36;;;;;;;22.25;12.82;;;10.60;76.40;;;;;;5042172;28;20036;-75
2022/10/28 06:08:06;;;;;;;15.90;9.93;;;10.60;76.30;;;;;;5042603;28;20029;-76
2022/10/28 06:10:32;;;;;;;14.98;9.40;;;10.60;76.20;;;;;;5027652;28;20037;-76
2022/10/28 06:12:58;;;;;;;14.40;8.82;;;10.60;76.20;;;;;;5022964;28;20032;-76
2022/10/28 06:15:24;;;;;;;15.32;9.60;;;10.60;76.30;;;;;;5022499;28;20037;-76
2022/10/28 06:17:50;;;;;;;14.15;8.00;;;10.60;76.20;;;;;;5043615;28;20037;-75
2022/10/28 06:20:17;;;;;;;14.43;8.90;;;10.60;76.60;;;;;;5041824;28;20508;-76
2022/10/28 06:22:51;;;;;;;16.50;8.73;;;10.60;76.40;;;;;;5023071;28;20056;-76
2022/10/28 06:25:17;;;;;;;14.35;8.57;;;10.60;76.50;;;;;;5039855;28;20049;-76
2022/10/28 06:27:43;;;;;;;15.43;8.98;;;10.60;76.50;;;;;;5040480;28;20033;-76
2022/10/28 06:30:10;;;;;;;17.58;9.52;;;10.60;77.20;;;;;;5022367;28;20332;-77
2022/10/28 06:32:35;;;;;;;14.43;8.35;;;10.60;76.70;;;;;;5040472;28;20033;-76
2022/10/28 06:35:01;;;;;;;12.25;8.20;;;10.60;76.70;;;;;;5025940;28;20047;-76
2022/10/28 06:37:27;;;;;;;13.90;8.80;;;10.70;76.70;;;;;;5041148;28;20102;-77
2022/10/28 06:39:53;;;;;;;15.32;8.88;;;10.70;76.70;;;;;;5022220;28;20034;-77
2022/10/28 06:42:19;;;;;;;13.30;8.55;;;10.70;76.80;;;;;;5024517;28;20447;-77
2022/10/28 06:44:45;;;;;;;20.50;9.35;;;10.70;76.90;;;;;;5040340;28;20040;-77
2022/10/28 06:47:11;;;;;;;13.73;8.65;;;10.70;77.00;;;;;;5028672;28;20102;-77
2022/10/28 06:49:37;;;;;;;16.02;9.00;;;10.70;77.00;;;;;;5038416;28;20034;-77
2022/10/28 06:52:03;;;;;;;15.00;9.18;;;10.70;76.90;;;;;;5040498;28;20059;-77
2022/10/28 06:54:29;;;;;;;15.93;8.30;;;10.70;77.00;;;;;;5040623;28;20548;-78
2022/10/28 06:56:55;;;;;;;15.65;9.52;;;10.70;77.00;;;;;;5021031;28;20044;-77
2022/10/28 06:59:20;;;;;;;13.07;8.15;;;10.70;77.10;;;;;;5041975;28;20037;-78
2022/10/28 07:01:46;;;;;;;12.23;8.45;;;10.80;77.20;;;;;;5042196;28;20029;-77
2022/10/28 07:04:12;;;;;;;16.08;8.63;;;10.70;77.20;;;;;;5009532;28;20463;-77
2022/10/28 07:06:39;;;;;;;14.45;8.80;;;10.80;77.30;;;;;;5040303;28;20082;-78
2022/10/28 07:09:05;;;;;;;15.60;9.15;;;10.80;77.40;;;;;;5037975;28;20033;-77
2022/10/28 07:11:31;;;;;;;14.07;9.10;;;10.80;77.50;;;;;;5042725;28;20508;-78
2022/10/28 07:13:57;;;;;;;22.58;9.88;;;10.80;77.40;;;;;;5040153;28;20028;-79
2022/10/28 07:16:23;;;;;;;18.17;8.73;;;10.90;77.40;;;;;;5021384;28;20067;-78
2022/10/28 07:18:49;;;;;;;16.67;8.98;;;10.80;77.60;;;;;;5041607;28;20079;-78
2022/10/28 07:21:17;;;;;;;17.55;9.02;;;10.80;77.70;;;;;;5022367;28;20094;-79
2022/10/28 07:23:45;;;;;;;18.95;9.55;;;10.90;78.00;;;;;;5023003;28;20053;-79
2022/10/28 07:26:11;;;;;;;16.90;9.65;;;10.90;78.00;;;;;;5044930;28;20033;-80
2022/10/28 07:28:36;;;;;;;16.48;10.10;;;10.90;78.10;;;;;;5039887;28;20427;-80
2022/10/28 07:31:03;;;;;;;18.85;10.45;;;10.90;78.20;;;;;;5026613;28;20061;-78
2022/10/28 07:33:29;;;;;;;16.42;9.57;;;11.00;78.20;;;;;;5022280;28;20025;-79
2022/10/28 07:35:55;;;;;;;21.05;10.77;;;11.00;78.30;;;;;;5023880;28;20037;-78
2022/10/28 07:38:21;;;;;;;14.90;9.68;;;11.00;78.30;;;;;;5011707;28;20047;-78
2022/10/28 07:40:47;;;;;;;16.25;9.60;;;11.00;78.30;;;;;;5020826;28;20040;-78
2022/10/28 07:43:13;;;;;;;16.63;9.60;;;11.00;78.30;;;;;;5022291;28;20037;-78
2022/10/28 07:45:39;;;;;;;16.00;10.07;;;11.00;78.10;;;;;;5021508;28;20037;-78
2022/10/28 07:48:06;;;;;;;16.77;9.50;;;11.00;78.10;;;;;;5039039;28;20049;-79
2022/10/28 07:50:32;;;;;;;16.90;9.55;;;11.00;78.20;;;;;;5024211;28;20059;-78
2022/10/28 07:52:58;;;;;;;19.27;9.60;;;11.00;78.40;;;;;;5025988;28;20069;-78
2022/10/28 07:55:25;;;;;;;21.17;10.15;;;11.00;78.50;;;;;;5006521;28;20063;-78
2022/10/28 07:57:50;;;;;;;15.80;10.15;;;11.10;78.50;;;;;;5041883;28;20086;-78
2022/10/28 08:00:17;;;;;;;16.33;9.25;;;11.10;78.50;;;;;;5039833;28;20330;-78
2022/10/28 08:02:43;;;;;;;14.25;9.32;;;11.10;78.40;;;;;;5021893;28;20037;-78
2022/10/28 08:05:10;;;;;;;18.85;10.27;;;11.10;78.60;;;;;;5009995;28;20437;-78
2022/10/28 08:07:36;;;;;;;15.45;9.98;;;11.10;78.40;;;;;;5042030;28;20144;-77
2022/10/28 08:10:02;;;;;;;15.52;8.73;;;11.10;78.40;;;;;;5008303;28;20029;-79
2022/10/28 08:12:29;;;;;;;16.50;8.80;;;11.10;78.30;;;;;;5007946;28;20045;-78
2022/10/28 08:14:55;;;;;;;14.48;9.35;;;11.20;78.40;;;;;;5040402;28;20052;-78
2022/10/28 08:17:21;;;;;;;16.38;9.77;;;11.20;78.50;;;;;;5020275;28;20039;-78
2022/10/28 08:19:47;;;;;;;17.67;9.02;;;11.20;78.50;;;;;;4993354;28;20047;-77
2022/10/28 08:22:13;;;;;;;15.27;9.43;;;11.20;78.30;;;;;;5039851;28;20033;-78
2022/10/28 08:24:39;;;;;;;15.23;9.10;;;11.20;78.40;;;;;;5021025;28;20037;-78
2022/10/28 08:27:05;;;;;;;18.98;9.40;;;11.30;78.40;;;;;;5040908;28;20124;-78
2022/10/28 08:29:30;;;;;;;16.45;9.20;;;11.30;78.50;;;;;;5020994;28;20055;-77
2022/10/28 08:31:56;;;;;;;17.40;8.98;;;11.30;78.60;;;;;;5039461;28;20067;-77
2022/10/28 08:34:28;;;;;;;17.48;9.90;;;11.30;78.50;;;;;;5040117;28;20049;-78
2022/10/28 08:36:55;;;;;;;13.95;8.70;;;11.30;78.50;;;;;;5030824;28;20040;-78
2022/10/28 08:39:21;;;;;;;14.52;9.00;;;11.30;78.40;;;;;;5040997;28;20033;-78
2022/10/28 08:42:06;;;;;;;15.60;9.10;;;11.40;78.60;;;;;;5029904;28;20029;-78
2022/10/28 08:45:09;;;;;;;14.57;8.88;;;11.40;78.80;;;;;;5043501;28;20029;-78
2022/10/28 08:47:55;;;;;;;13.77;8.75;;;11.40;78.70;;;;;;5024186;28;20045;-78
2022/10/28 08:50:23;;;;;;;15.48;9.77;;;11.40;78.60;;;;;;5028133;28;20113;-78
2022/10/28 08:52:49;;;;;;;15.48;9.40;;;11.50;78.50;;;;;;5044347;28;20045;-78
2022/10/28 08:55:49;;;;;;;19.73;10.30;;;11.50;78.50;;;;;;5023936;28;20293;-77
2022/10/28 08:58:29;;;;;;;15.95;9.80;;;11.50;78.50;;;;;;4965449;28;20034;-78
2022/10/28 09:00:58;;;;;;;15.60;8.40;;;11.50;78.40;;;;;;4966234;28;20035;-80
2022/10/28 09:03:31;;;;;;;13.85;9.10;;;11.60;78.40;;;;;;4965876;28;20039;-78
2022/10/28 09:06:03;;;;;;;19.92;11.77;;;11.60;78.40;;;;;;4965408;28;20038;-79
2022/10/28 09:08:45;;;;;;;21.60;10.80;;;11.60;78.40;;;;;;4917755;28;20655;-79
2022/10/28 09:11:30;;;;;;;18.42;10.48;;;11.60;78.40;;;;;;4934008;28;20142;-79
2022/10/28 09:14:18;;;;;;;16.05;10.77;;;11.60;78.30;;;;;;4949359;28;20122;-78
2022/10/28 09:16:54;;;;;;;16.85;9.07;;;11.70;78.30;;;;;;4965127;28;20031;-79
2022/10/28 09:19:19;;;;;;;;;;;11.80;78.30;;;;;;4966280;28;20066;-78
2022/10/28 09:22:02;;;;;;;20.30;10.27;;;11.80;78.30;;;;;;4918302;28;19922;-79
2022/10/28 09:24:53;;;;;;;17.05;9.55;;;11.90;78.20;;;;;;4949139;28;20706;-76
2022/10/28 09:27:22;;;;;;;14.55;8.38;;;11.90;78.00;;;;;;4965603;28;20035;-79
2022/10/28 09:30:17;;;;;;;17.15;9.23;;;11.90;77.90;;;;;;4966241;28;20135;-79
2022/10/28 09:33:02;;;;;;;15.90;9.65;;;12.00;77.80;;;;;;4965416;28;20418;-79
2022/10/28 09:35:33;;;;;;;20.10;9.15;;;12.00;77.60;;;;;;5026646;28;20044;-79
2022/10/28 09:38:25;;;;;;;15.45;9.77;;;12.10;77.70;;;;;;5027851;28;20400;-79
2022/10/28 09:41:06;;;;;;;19.77;9.55;;;12.10;77.60;;;;;;5034036;28;20037;-79
2022/10/28 09:43:34;;;;;;;17.13;9.82;;;12.20;77.60;;;;;;5011579;28;20037;-79
2022/10/28 09:46:11;;;;;;;15.90;9.40;;;12.20;77.50;;;;;;5045209;28;20033;-78
2022/10/28 09:48:58;;;;;;;17.38;9.30;;;12.20;77.60;;;;;;5012313;28;20606;-79
2022/10/28 09:52:09;;;;;;;16.10;9.75;;;12.30;77.50;;;;;;5027177;28;20053;-77
2022/10/28 09:54:39;;;;;;;14.68;8.98;;;12.30;77.30;;;;;;5015600;28;20499;-78
2022/10/28 09:57:05;;;;;;;14.68;8.98;;;12.30;77.30;;;;;;5023566;28;20036;-80
2022/10/28 09:59:32;;;;;;;14.15;9.00;;;12.40;77.30;;;;;;5044753;28;20029;-79
2022/10/28 10:01:58;;;;;;;14.38;8.60;;;12.40;77.40;;;;;;5011874;28;20523;-80
2022/10/28 10:04:27;;;;;;;16.17;9.20;;;12.40;77.20;;;;;;5011637;28;20103;-79
2022/10/28 10:07:01;;;;;;;16.63;9.02;;;12.50;77.30;;;;;;5026995;28;20459;-78
2022/10/28 10:09:30;;;;;;;16.42;8.63;;;12.50;77.20;;;;;;5045410;28;20044;-79
2022/10/28 10:12:03;;;;;;;12.98;8.52;;;12.50;77.10;;;;;;5044754;28;20037;-77
2022/10/28 10:14:37;;;;;;;14.20;8.43;;;12.50;77.10;;;;;;5045167;28;20025;-78
2022/10/28 10:17:09;;;;;;;12.50;8.73;;;12.50;76.90;;;;;;5042948;28;20025;-79
2022/10/28 10:19:58;;;;;;;13.35;8.60;;;12.60;77.00;;;;;;5044321;28;20048;-77
2022/10/28 10:22:42;;;;;;;16.05;8.13;;;12.60;77.00;;;;;;5044968;28;20036;-77
2022/10/28 10:25:17;;;;;;;14.75;8.02;;;12.70;76.60;;;;;;5043331;28;20179;-78
2022/10/28 10:28:12;;;;;;;12.73;8.45;;;12.70;76.90;;;;;;5044999;28;20067;-78
2022/10/28 10:31:00;;;;;;;14.43;8.02;;;12.70;77.10;;;;;;5028032;28;20036;-79
2022/10/28 10:33:39;;;;;;;15.15;8.48;;;12.80;77.30;;;;;;5029289;28;20036;-79
2022/10/28 10:36:10;;;;;;;12.60;7.97;;;12.90;97.40;;;;;;5042592;28;20160;-80
2022/10/28 10:38:37;;;;;;;12.57;7.80;;;12.90;99.90;;;;;;5043230;28;20115;-80
2022/10/28 10:41:04;;;;;;;12.27;6.57;;;;;;;;;;5026353;28;20037;-79
2022/10/28 10:43:32;;;;;;;15.82;7.50;;;;;;;;;;5025137;28;20068;-80
2022/10/28 10:46:14;;;;;;;13.93;7.75;;;;;;;;;;5026671;28;20110;-81
2022/10/28 10:48:40;;;;;;;12.43;7.80;;;;;;;;;;5029077;28;20033;-85
2022/10/28 10:51:17;;;;;;;16.17;8.43;;;;;;;;;;5028064;28;20508;-81
2022/10/28 10:53:47;;;;;;;11.38;7.53;;;;;;;;;;5027762;28;20044;-80
2022/10/28 10:56:22;;;;;;;13.65;8.07;;;;;;;;;;5028144;28;20052;-80
2022/10/28 10:58:50;;;;;;;13.50;8.52;;;;;;;;;;5043568;28;20082;-80
2022/10/28 11:01:18;;;;;;;13.48;8.23;;;;;;;;;;5044233;28;20464;-78
2022/10/28 11:03:57;;;;;;;22.67;8.88;;;;;;;;;;5025430;28;20044;-78
2022/10/28 11:06:27;;;;;;;14.50;8.48;;;;;;;;;;5026277;28;20452;-81
2022/10/28 11:08:58;;;;;;;20.33;9.02;;;;;;;;;;5026319;28;20037;-78
2022/10/28 11:11:40;;;;;;;17.27;9.27;;;;;;;;;;5045328;28;20518;-78
2022/10/28 11:14:23;;;;;;;15.30;9.48;;;;;;;;;;5043890;28;20044;-80
2022/10/28 11:16:54;;;;;;;15.93;8.98;;;;;;;;;;5043681;28;20431;-79
2022/10/28 11:19:20;;;;;;;13.32;8.55;;;;;;;;;;5044621;28;20504;-78
2022/10/28 11:21:55;;;;;;;13.02;8.40;;;;;;;;;;5026163;28;20199;-79
2022/10/28 11:24:30;;;;;;;15.35;9.15;;;;;;;;;;5042705;28;20530;-79
2022/10/28 11:27:05;;;;;;;17.58;10.05;;;;;;;;;;5026459;28;20033;-81
2022/10/28 11:29:31;;;;;;;12.38;8.05;;;;;;;;;;5043824;28;20450;-82
2022/10/28 11:31:58;;;;;;;14.10;9.10;;;;;;;;;;5025946;28;20032;-82
2022/10/28 11:34:35;;;;;;;15.70;8.60;;;;;;;;;;5026865;28;20224;-82
2022/10/28 11:37:13;;;;;;;13.95;8.23;;;;;;;;;;5026948;28;20067;-82
2022/10/28 11:39:58;;;;;;;13.23;8.35;;;;;;;;;;5025397;28;20094;-80
2022/10/28 11:42:31;;;;;;;13.48;9.15;;;;;;;;;;5043498;28;20040;-80
2022/10/28 11:45:16;;;;;;;16.40;7.07;;;;;;;;;;5025759;28;20166;-78
2022/10/28 11:47:52;;;;;;;13.35;7.75;;;;;;;;;;5008382;28;20041;-78
2022/10/28 11:50:25;;;;;;;13.63;7.07;;;;;;;;;;5043855;28;20021;-80
2022/10/28 11:52:51;;;;;;;13.38;7.30;;;;;;;;;;5043422;28;20055;-79
2022/10/28 11:55:35;;;;;;;11.68;6.65;;;;;;;;;;5044162;28;20563;-77
2022/10/28 11:58:04;;;;;;;12.75;6.97;;;;;;;;;;5006837;28;20998;-80
2022/10/28 12:00:40;;;;;;;11.35;6.95;;;;;;;;;;5042332;28;20068;-81
2022/10/28 12:03:18;;;;;;;13.68;7.53;;;;;;;;;;5044186;28;20504;-82
2022/10/28 12:05:50;;;;;;;13.88;6.70;;;;;;;;;;5043182;28;20068;-78
2022/10/28 12:08:20;;;;;;;9.93;6.40;;;;;;;;;;5025487;28;20531;-79
2022/10/28 12:10:46;;;;;;;9.88;6.55;;;;;;;;;;5044428;28;20673;-82
2022/10/28 12:13:12;;;;;;;11.13;7.00;;;;;;;;;;5008586;28;20037;-79
2022/10/28 12:15:45;;;;;;;14.55;6.85;;;;;;;;;;5006751;28;20570;-81
2022/10/28 12:18:18;;;;;;;9.90;6.18;;;;;;;;;;5025562;28;20057;-82
2022/10/28 12:20:50;;;;;;;15.52;6.35;;;;;;;;;;5043819;28;20029;-85
2022/10/28 12:23:17;;;;;;;11.18;6.50;;;;;;;;;;5026246;28;20480;-84
2022/10/28 12:25:46;;;;;;;11.63;6.57;;;;;;;;;;5026982;28;20124;-91
2022/10/28 12:28:24;;;;;;;13.07;7.03;;;;;;;;;;5026530;28;20057;-91
2022/10/28 12:30:52;;;;;;;11.82;6.75;;;;;;;;;;5043589;28;20351;-85
2022/10/28 12:33:21;;;;;;;10.40;6.13;;;;;;;;;;5026735;28;20033;-90
2022/10/28 12:35:52;;;;;;;9.27;6.07;;;;;;;;;;5028508;28;20045;-91
2022/10/28 12:38:28;;;;;;;12.60;6.63;;;;;;;;;;5027340;28;20025;-90
2022/10/28 12:41:11;;;;;;;9.32;6.35;;;;;;;;;;5026660;28;20611;-89
2022/10/28 12:43:43;;;;;;;9.48;6.40;;;;;;;;;;5010085;28;20067;-86
2022/10/28 12:46:18;;;;;;;10.07;6.35;;;;;;;;;;5010311;28;20044;-86
2022/10/28 12:48:48;;;;;;;9.85;6.80;;;;;;;;;;5044461;28;20527;-90
2022/10/28 12:51:17;;;;;;;9.70;6.70;;;;;;;;;;5044693;28;20136;-86
2022/10/28 12:53:46;;;;;;;8.95;5.95;;;;;;;;;;4995450;28;20037;-89
2022/10/28 12:56:32;;;;;;;10.55;7.05;;;;;;;;;;5045071;28;20028;-89
2022/10/28 12:59:05;;;;;;;15.68;7.65;;;;;;;;;;5027430;28;20041;-88
2022/10/28 13:01:32;;;;;;;14.80;7.05;;;;;;;;;;5044436;28;20030;-88
2022/10/28 13:03:59;;;;;;;11.70;6.88;;;;;;;;;;5026390;28;20037;-92
2022/10/28 13:06:40;;;;;;;12.55;6.70;;;;;;;;;;5029363;28;20033;-89
2022/10/28 13:09:16;;;;;;;10.10;6.55;;;;;;;;;;5069931;28;20146;-82
2022/10/28 13:11:42;;;;;;;11.43;6.93;;;;;;;;;;5052406;28;20029;-86
2022/10/28 13:14:08;;;;;;;11.02;6.72;;;;;;;;;;5064626;28;20818;-87
2022/10/28 13:16:53;;;;;;;10.68;6.28;;;;;;;;;;5048368;28;20131;-91
2022/10/28 13:19:19;;;;;;;9.88;6.07;;;;;;;;;;5012869;28;20045;-90